Time;durP1;ratioP1;P1;durP2;ratioP2;P2;SDS_P1;SDS_P2;PMS_P1;PMS_P2;Temp;Humidity;BMP_temperature;BMP_pressure;BME280_temperature;BME280_humidity;BME280_pressure;Samples;Min_cycle;Max_cycle;Signal;HPM_P1;HPM_P2
2023/05/20 00:02:13;;;;;;;8.77;4.90;;;;;;;;;;5032220;28;20451;-64
2023/05/20 00:04:40;;;;;;;10.32;4.45;;;;;;;;;;5031127;28;20691;-65
2023/05/20 00:07:05;;;;;;;8.55;4.30;;;;;;;;;;5031570;28;20029;-64
2023/05/20 00:09:31;;;;;;;9.35;4.80;;;;;;;;;;5032199;28;20028;-65
2023/05/20 00:11:56;;;;;;;9.85;4.63;;;;;;;;;;5030619;28;20025;-64
2023/05/20 00:14:21;;;;;;;9.25;4.82;;;;;;;;;;5030995;28;20096;-61
2023/05/20 00:16:47;;;;;;;12.52;5.30;;;;;;;;;;5032003;28;20041;-65
2023/05/20 00:19:12;;;;;;;8.50;4.43;;;;;;;;;;5030586;28;20028;-63
2023/05/20 00:21:37;;;;;;;8.85;4.80;;;;;;;;;;5031774;28;20024;-64
2023/05/20 00:24:03;;;;;;;10.15;5.47;;;;;;;;;;5030955;28;20029;-63
2023/05/20 00:26:28;;;;;;;10.55;4.60;;;;;;;;;;5029823;28;20025;-64
2023/05/20 00:28:53;;;;;;;9.57;4.78;;;;;;;;;;5031897;28;20017;-64
2023/05/20 00:31:18;;;;;;;11.23;5.18;;;;;;;;;;5032649;28;20017;-58
2023/05/20 00:33:43;;;;;;;13.95;4.55;;;;;;;;;;5031832;28;20471;-64
2023/05/20 00:36:09;;;;;;;9.07;4.70;;;;;;;;;;5030823;28;20017;-61
2023/05/20 00:38:34;;;;;;;11.48;5.15;;;;;;;;;;5032115;28;20275;-65
2023/05/20 00:40:59;;;;;;;9.93;4.72;;;;;;;;;;5031589;28;20597;-65
2023/05/20 00:43:25;;;;;;;12.65;5.40;;;;;;;;;;5030410;28;20030;-65
2023/05/20 00:45:53;;;;;;;12.23;5.00;;;;;;;;;;5031489;28;20487;-61
2023/05/20 00:48:20;;;;;;;11.15;5.30;;;;;;;;;;5031620;28;20467;-62
2023/05/20 00:50:46;;;;;;;11.63;5.22;;;;;;;;;;5031707;28;20037;-65
2023/05/20 00:53:11;;;;;;;10.25;4.97;;;;;;;;;;5031206;28;20075;-63
2023/05/20 00:55:36;;;;;;;7.38;4.65;;;;;;;;;;5030586;28;20029;-65
2023/05/20 00:58:02;;;;;;;11.63;4.93;;;;;;;;;;5029461;28;20060;-65
2023/05/20 01:00:27;;;;;;;8.18;4.85;;;;;;;;;;5031313;28;20505;-63
2023/05/20 01:02:54;;;;;;;17.02;5.45;;;;;;;;;;5029924;28;20082;-63
2023/05/20 01:05:19;;;;;;;10.18;5.03;;;;;;;;;;5030024;28;20017;-63
2023/05/20 01:07:44;;;;;;;15.40;6.85;;;;;;;;;;5051306;22;20047;-68
2023/05/20 01:10:10;;;;;;;10.98;5.82;;;;;;;;;;5049153;28;20013;-67
2023/05/20 01:12:42;;;;;;;10.05;5.85;;;;;;;;;;5048925;28;20077;-68
2023/05/20 01:15:08;;;;;;;11.25;5.95;;;;;;;;;;5048861;28;20016;-67
2023/05/20 01:17:37;;;;;;;13.38;5.80;;;;;;;;;;5056956;28;20029;-68
2023/05/20 01:20:03;;;;;;;8.65;4.63;;;;;;;;;;5069164;28;20123;-66
2023/05/20 01:22:29;;;;;;;10.40;5.10;;;;;;;;;;5068639;28;20044;-67
2023/05/20 01:24:55;;;;;;;8.40;4.97;;;;;;;;;;5068365;28;20055;-68
2023/05/20 01:27:21;;;;;;;9.45;4.80;;;;;;;;;;5067523;28;20024;-69
2023/05/20 01:29:49;;;;;;;15.82;5.38;;;;;;;;;;5068553;28;20039;-68
2023/05/20 01:32:18;;;;;;;10.77;5.63;;;;;;;;;;5069254;28;20024;-69
2023/05/20 01:34:44;;;;;;;10.15;5.70;;;;;;;;;;5068335;28;20029;-64
2023/05/20 01:37:09;;;;;;;15.10;5.15;;;;;;;;;;5068167;28;20059;-66
2023/05/20 01:39:36;;;;;;;10.70;5.85;;;;;;;;;;5069274;28;20063;-68
2023/05/20 01:42:02;;;;;;;13.48;6.57;;;;;;;;;;5068198;28;20031;-68
2023/05/20 01:44:27;;;;;;;12.90;5.50;;;;;;;;;;5067173;28;20020;-68
2023/05/20 01:46:53;;;;;;;11.75;5.85;;;;;;;;;;5068526;28;20009;-66
2023/05/20 01:49:18;;;;;;;11.10;6.05;;;;;;;;;;5068684;28;20069;-68
2023/05/20 01:51:43;;;;;;;11.52;5.97;;;;;;;;;;5068073;28;20033;-70
2023/05/20 01:54:08;;;;;;;10.88;5.50;;;;;;;;;;5061443;28;20035;-64
2023/05/20 01:56:34;;;;;;;9.70;5.78;;;;;;;;;;5066438;28;20085;-68
2023/05/20 01:58:59;;;;;;;12.38;6.60;;;;;;;;;;5068049;28;20039;-67
2023/05/20 02:01:25;;;;;;;12.38;6.65;;;;;;;;;;5068619;28;20020;-69
2023/05/20 02:03:50;;;;;;;13.05;6.65;;;;;;;;;;5065667;28;20039;-67
2023/05/20 02:06:15;;;;;;;12.95;6.35;;;;;;;;;;5068203;28;20558;-69
2023/05/20 02:08:40;;;;;;;10.20;6.57;;;;;;;;;;5067251;28;20033;-68
2023/05/20 02:11:05;;;;;;;15.77;7.28;;;;;;;;;;5066681;28;20025;-70
2023/05/20 02:13:31;;;;;;;12.48;6.18;;;;;;;;;;5067113;28;20212;-65
2023/05/20 02:15:56;;;;;;;11.88;6.80;;;;;;;;;;5068328;28;20451;-68
2023/05/20 02:18:21;;;;;;;13.93;6.35;;;;;;;;;;5068404;28;20432;-67
2023/05/20 02:20:46;;;;;;;16.02;6.75;;;;;;;;;;5068328;28;20409;-68
2023/05/20 02:23:11;;;;;;;10.63;6.65;;;;;;;;;;5067167;28;20027;-66
2023/05/20 02:25:37;;;;;;;15.07;7.50;;;;;;;;;;5067226;28;20035;-66
2023/05/20 02:28:04;;;;;;;13.55;6.88;;;;;;;;;;5067155;28;20048;-67
2023/05/20 02:30:30;;;;;;;14.13;7.75;;;;;;;;;;5067808;28;20032;-68
2023/05/20 02:32:56;;;;;;;13.90;7.63;;;;;;;;;;5067883;28;20024;-69
2023/05/20 02:35:21;;;;;;;13.45;7.88;;;;;;;;;;5066592;28;20027;-68
2023/05/20 02:37:47;;;;;;;14.15;7.10;;;;;;;;;;5066826;28;20032;-66
2023/05/20 02:40:13;;;;;;;17.85;8.48;;;;;;;;;;5067262;28;20027;-69
2023/05/20 02:42:38;;;;;;;14.23;7.55;;;;;;;;;;5067758;28;20013;-68
2023/05/20 02:45:03;;;;;;;15.52;8.43;;;;;;;;;;5066411;28;20008;-69
2023/05/20 02:47:29;;;;;;;15.80;8.70;;;;;;;;;;5067456;28;20021;-67
2023/05/20 02:49:54;;;;;;;16.13;8.73;;;;;;;;;;5067936;28;20286;-68
2023/05/20 02:52:20;;;;;;;17.30;9.20;;;;;;;;;;5068484;28;20028;-67
2023/05/20 02:54:46;;;;;;;22.80;9.73;;;;;;;;;;5066491;28;20031;-68
2023/05/20 02:57:11;;;;;;;19.52;10.10;;;;;;;;;;5069363;28;20035;-68
2023/05/20 02:59:36;;;;;;;15.98;8.95;;;;;;;;;;5071887;28;20049;-65
2023/05/20 03:02:02;;;;;;;24.42;10.15;;;;;;;;;;5079955;28;20051;-68
2023/05/20 03:04:27;;;;;;;17.40;9.13;;;;;;;;;;5079337;28;20009;-64
2023/05/20 03:06:52;;;;;;;19.17;9.70;;;;;;;;;;5081448;28;20013;-68
2023/05/20 03:09:18;;;;;;;16.15;9.68;;;;;;;;;;5072318;28;20020;-68
2023/05/20 03:11:43;;;;;;;19.23;10.60;;;;;;;;;;5070526;28;20020;-69
2023/05/20 03:14:09;;;;;;;19.20;9.75;;;;;;;;;;5070787;28;20032;-65
2023/05/20 03:16:34;;;;;;;21.08;9.75;;;;;;;;;;5071500;28;20012;-69
2023/05/20 03:19:00;;;;;;;16.60;9.80;;;;;;;;;;5071434;28;20031;-68
2023/05/20 03:21:25;;;;;;;18.58;10.50;;;;;;;;;;5071566;28;20355;-66
2023/05/20 03:23:50;;;;;;;22.98;9.90;;;;;;;;;;5069750;28;20020;-69
2023/05/20 03:26:16;;;;;;;20.00;10.43;;;;;;;;;;5070778;28;20043;-65
2023/05/20 03:28:41;;;;;;;19.13;10.50;;;;;;;;;;5071131;28;20032;-71
2023/05/20 03:31:06;;;;;;;20.23;10.52;;;;;;;;;;5071199;28;20021;-68
2023/05/20 03:33:33;;;;;;;21.17;11.30;;;;;;;;;;5068731;28;20398;-69
2023/05/20 03:35:58;;;;;;;23.30;10.88;;;;;;;;;;5070764;28;20032;-66
2023/05/20 03:38:23;;;;;;;18.35;10.45;;;;;;;;;;5069821;28;20382;-69
2023/05/20 03:40:49;;;;;;;18.52;10.95;;;;;;;;;;5070045;28;20402;-68
2023/05/20 03:43:14;;;;;;;18.48;10.25;;;;;;;;;;5069930;28;20134;-67
2023/05/20 03:45:39;;;;;;;24.05;10.80;;;;;;;;;;5070035;28;20032;-68
2023/05/20 03:48:05;;;;;;;25.48;12.60;;;;;;;;;;5071007;28;20039;-64
2023/05/20 03:50:31;;;;;;;26.60;16.33;;;;;;;;;;5070895;28;20023;-68
2023/05/20 03:52:56;;;;;;;24.35;13.98;;;;;;;;;;5068337;28;20017;-69
2023/05/20 03:55:21;;;;;;;18.63;10.68;;;;;;;;;;5065103;28;20016;-67
2023/05/20 03:57:46;;;;;;;24.27;11.68;;;;;;;;;;5070423;28;20485;-66
2023/05/20 04:00:13;;;;;;;19.20;10.68;;;;;;;;;;5070142;28;20110;-68
2023/05/20 04:02:38;;;;;;;22.10;11.20;;;;;;;;;;5070583;28;20013;-68
2023/05/20 04:05:04;;;;;;;23.35;11.30;;;;;;;;;;5069982;28;20017;-66
2023/05/20 04:07:29;;;;;;;17.52;10.60;;;;;;;;;;5070401;28;20363;-69
2023/05/20 04:09:54;;;;;;;19.08;9.95;;;;;;;;;;5070007;28;20092;-68
2023/05/20 04:12:19;;;;;;;19.55;10.82;;;;;;;;;;5069407;28;20081;-68
2023/05/20 04:14:45;;;;;;;22.02;10.93;;;;;;;;;;5069444;28;20036;-68
2023/05/20 04:17:10;;;;;;;20.63;10.52;;;;;;;;;;5070417;28;20017;-67
2023/05/20 04:19:37;;;;;;;16.15;8.80;;;;;;;;;;5068587;28;20052;-68
2023/05/20 04:22:02;;;;;;;19.95;10.27;;;;;;;;;;5069889;28;20123;-69
2023/05/20 04:24:27;;;;;;;18.70;10.60;;;;;;;;;;5067309;28;20035;-70
2023/05/20 04:26:53;;;;;;;22.17;10.68;;;;;;;;;;5069245;28;20458;-65
2023/05/20 04:29:18;;;;;;;19.95;9.60;;;;;;;;;;5069082;28;20078;-69
2023/05/20 04:31:47;;;;;;;21.15;9.98;;;;;;;;;;5069661;28;20089;-64
2023/05/20 04:34:13;;;;;;;19.33;10.65;;;;;;;;;;5069380;28;20028;-69
2023/05/20 04:36:38;;;;;;;19.75;10.10;;;;;;;;;;5069742;28;20035;-67
2023/05/20 04:39:09;;;;;;;20.40;9.80;;;;;;;;;;5069203;28;20389;-67
2023/05/20 04:41:35;;;;;;;23.25;10.48;;;;;;;;;;5068975;28;20363;-67
2023/05/20 04:44:00;;;;;;;20.58;10.82;;;;;;;;;;5068677;28;20548;-68
2023/05/20 04:46:26;;;;;;;19.23;10.82;;;;;;;;;;5068309;28;20013;-69
2023/05/20 04:48:52;;;;;;;22.50;10.13;;;;;;;;;;5070060;28;20027;-69
2023/05/20 04:51:17;;;;;;;17.83;10.32;;;;;;;;;;5070119;28;20025;-69
2023/05/20 04:53:43;;;;;;;19.90;9.93;;;;;;;;;;5062940;28;20036;-65
2023/05/20 04:56:09;;;;;;;21.60;11.45;;;;;;;;;;5067689;28;20074;-69
2023/05/20 04:58:34;;;;;;;19.25;10.55;;;;;;;;;;5069384;28;20639;-68
2023/05/20 05:01:00;;;;;;;21.38;10.13;;;;;;;;;;5069664;28;20465;-70
2023/05/20 05:03:25;;;;;;;16.13;9.98;;;;;;;;;;5067411;28;20631;-69
2023/05/20 05:05:54;;;;;;;22.33;11.45;;;;;;;;;;5068915;28;20500;-67
2023/05/20 05:08:19;;;;;;;18.60;11.23;;;;;;;;;;5068966;28;20035;-67
2023/05/20 05:10:45;;;;;;;19.70;11.15;;;;;;;;;;5067414;28;20040;-67
2023/05/20 05:13:10;;;;;;;19.40;10.68;;;;;;;;;;5069062;28;20021;-69
2023/05/20 05:15:36;;;;;;;17.33;10.35;;;;;;;;;;5066943;28;20021;-64
2023/05/20 05:18:01;;;;;;;22.85;11.35;;;;;;;;;;5069422;28;20028;-68
2023/05/20 05:20:26;;;;;;;18.67;10.88;;;;;;;;;;5069235;28;20490;-68
2023/05/20 05:22:51;;;;;;;21.65;10.68;;;;;;;;;;5068920;28;20047;-67
2023/05/20 05:25:17;;;;;;;22.27;10.80;;;;;;;;;;5066421;28;20109;-69
2023/05/20 05:27:43;;;;;;;23.23;10.95;;;;;;;;;;5069129;28;20021;-65
2023/05/20 05:30:09;;;;;;;16.75;10.20;;;;;;;;;;5067826;28;20089;-68
2023/05/20 05:32:35;;;;;;;16.20;10.40;;;;;;;;;;5069335;28;20028;-67
2023/05/20 05:35:00;;;;;;;17.33;10.43;;;;;;;;;;5068326;28;20097;-67
2023/05/20 05:37:26;;;;;;;19.80;11.63;;;;;;;;;;5068523;28;20028;-68
2023/05/20 05:39:51;;;;;;;18.67;10.98;;;;;;;;;;5068375;28;20367;-66
2023/05/20 05:42:16;;;;;;;22.02;11.85;;;;;;;;;;5066881;28;20493;-69
2023/05/20 05:44:41;;;;;;;19.15;10.93;;;;;;;;;;5067867;28;20020;-66
2023/05/20 05:47:07;;;;;;;18.55;11.50;;;;;;;;;;5069258;28;20439;-69
2023/05/20 05:49:32;;;;;;;19.08;11.50;;;;;;;;;;5068847;28;20555;-64
2023/05/20 05:51:57;;;;;;;21.88;11.68;;;;;;;;;;5068381;28;20040;-69
2023/05/20 05:54:23;;;;;;;23.83;11.30;;;;;;;;;;5061840;28;20024;-67
2023/05/20 05:56:50;;;;;;;22.50;11.35;;;;;;;;;;5067489;28;20017;-69
2023/05/20 05:59:15;;;;;;;23.05;11.25;;;;;;;;;;5068024;28;20391;-68
2023/05/20 06:01:40;;;;;;;22.13;11.85;;;;;;;;;;5067234;28;20123;-69
2023/05/20 06:04:05;;;;;;;21.73;11.40;;;;;;;;;;5065877;28;20021;-68
2023/05/20 06:06:30;;;;;;;21.17;11.60;;;;;;;;;;5068416;28;20017;-65
2023/05/20 06:08:56;;;;;;;21.17;11.00;;;;;;;;;;5067932;28;20032;-68
2023/05/20 06:11:22;;;;;;;19.58;10.63;;;;;;;;;;5067489;28;20511;-66
2023/05/20 06:13:48;;;;;;;18.30;11.25;;;;;;;;;;5067385;28;20066;-67
2023/05/20 06:16:13;;;;;;;19.80;10.77;;;;;;;;;;5068565;28;20124;-69
2023/05/20 06:18:38;;;;;;;19.25;11.50;;;;;;;;;;5068340;28;20040;-69
2023/05/20 06:21:03;;;;;;;21.52;11.07;;;;;;;;;;5068434;28;20028;-68
2023/05/20 06:23:29;;;;;;;21.80;11.07;;;;;;;;;;5067707;28;20024;-68
2023/05/20 06:25:58;;;;;;;20.60;12.05;;;;;;;;;;5067620;28;20012;-65
2023/05/20 06:28:23;;;;;;;19.15;11.65;;;;;;;;;;5068012;28;20063;-67
2023/05/20 06:30:48;;;;;;;18.95;10.82;;;;;;;;;;5068636;28;20101;-68
2023/05/20 06:33:14;;;;;;;21.33;12.10;;;;;;;;;;5066410;28;20025;-68
2023/05/20 06:35:39;;;;;;;20.60;10.93;;;;;;;;;;5067108;28;20020;-68
2023/05/20 06:38:04;;;;;;;19.60;11.77;;;;;;;;;;5067571;28;20101;-69
2023/05/20 06:40:30;;;;;;;17.92;10.88;;;;;;;;;;5067728;28;20021;-68
2023/05/20 06:42:55;;;;;;;21.92;11.40;;;;;;;;;;5067899;28;20027;-68
2023/05/20 06:45:20;;;;;;;20.17;11.10;;;;;;;;;;5066731;28;20021;-67
2023/05/20 06:47:47;;;;;;;17.52;11.20;;;;;;;;;;5068243;28;20032;-68
2023/05/20 06:50:13;;;;;;;20.75;11.25;;;;;;;;;;5067583;28;20369;-68
2023/05/20 06:52:38;;;;;;;21.48;11.18;;;;;;;;;;5067511;28;20092;-68
2023/05/20 06:55:04;;;;;;;20.48;11.65;;;;;;;;;;5060756;28;20021;-69
2023/05/20 06:57:29;;;;;;;22.25;11.63;;;;;;;;;;5067826;28;20017;-67
2023/05/20 06:59:55;;;;;;;17.48;10.10;;;;;;;;;;5067216;28;20493;-68
2023/05/20 07:02:20;;;;;;;19.17;11.20;;;;;;;;;;5066915;28;20108;-69
2023/05/20 07:04:46;;;;;;;21.45;11.55;;;;;;;;;;5064161;28;20108;-69
2023/05/20 07:07:12;;;;;;;16.88;10.60;;;;;;;;;;5067444;28;20113;-67
2023/05/20 07:09:37;;;;;;;21.00;11.40;;;;;;;;;;5063695;22;20111;-68
2023/05/20 07:12:02;;;;;;;22.05;12.02;;;;;;;;;;5047812;28;20565;-68
2023/05/20 07:14:28;;;;;;;21.55;11.68;;;;;;;;;;5048145;28;20020;-68
2023/05/20 07:16:53;;;;;;;22.92;12.25;;;;;;;;;;5050133;28;20475;-67
2023/05/20 07:19:18;;;;;;;19.83;11.50;;;;;;;;;;5049279;28;20025;-68
2023/05/20 07:21:44;;;;;;;24.08;12.10;;;;;;;;;;5049090;28;20017;-67
2023/05/20 07:24:09;;;;;;;20.90;11.90;;;;;;;;;;5034230;28;20021;-66
2023/05/20 07:26:35;;;;;;;20.48;11.70;;;;;;;;;;5049028;28;20048;-67
2023/05/20 07:29:01;;;;;;;20.20;11.05;;;;;;;;;;5039915;28;20014;-68
2023/05/20 07:31:26;;;;;;;29.58;12.23;;;;;;;;;;5040346;28;20017;-69
2023/05/20 07:33:51;;;;;;;24.48;12.90;;;;;;;;;;5047982;28;20017;-69
2023/05/20 07:36:17;;;;;;;25.98;12.68;;;;;;;;;;5048528;28;20052;-68
2023/05/20 07:38:42;;;;;;;22.45;13.25;;;;;;;;;;5038157;28;20487;-66
2023/05/20 07:41:07;;;;;;;23.58;12.80;;;;;;;;;;5028984;28;20014;-67
2023/05/20 07:43:32;;;;;;;26.02;13.18;;;;;;;;;;5030722;28;20657;-67
2023/05/20 07:45:58;;;;;;;22.48;12.75;;;;;;;;;;5039938;28;20016;-68
2023/05/20 07:48:23;;;;;;;23.00;13.18;;;;;;;;;;5035468;28;20070;-68
2023/05/20 07:50:48;;;;;;;24.70;13.50;;;;;;;;;;5048713;28;20029;-67
2023/05/20 07:53:13;;;;;;;22.70;13.20;;;;;;;;;;5039679;28;20018;-69
2023/05/20 07:55:38;;;;;;;24.98;13.35;;;;;;;;;;5030700;28;20044;-68
2023/05/20 07:58:04;;;;;;;27.48;13.02;;;;;;;;;;5049200;28;20033;-67
2023/05/20 08:00:29;;;;;;;27.63;12.98;;;;;;;;;;5040863;28;20067;-67
2023/05/20 08:02:54;;;;;;;25.98;13.98;;;;;;;;;;5029965;28;20013;-67
2023/05/20 08:05:21;;;;;;;22.42;13.27;;;;;;;;;;5031339;28;20497;-68
2023/05/20 08:07:46;;;;;;;31.42;12.75;;;;;;;;;;5034273;28;20594;-66
2023/05/20 08:10:12;;;;;;;22.05;13.15;;;;;;;;;;5031669;28;20049;-66
2023/05/20 08:12:37;;;;;;;24.98;11.98;;;;;;;;;;5038836;28;20028;-66
2023/05/20 08:15:03;;;;;;;25.27;13.82;;;;;;;;;;5041257;28;20017;-68
2023/05/20 08:17:28;;;;;;;23.35;13.00;;;;;;;;;;5051841;28;20032;-68
2023/05/20 08:19:53;;;;;;;27.65;12.77;;;;;;;;;;5041421;28;20017;-67
2023/05/20 08:22:18;;;;;;;22.67;12.20;;;;;;;;;;5031654;28;20021;-67
2023/05/20 08:24:44;;;;;;;21.80;12.52;;;;;;;;;;5030640;28;20345;-67
2023/05/20 08:27:09;;;;;;;23.88;12.05;;;;;;;;;;5047883;28;20037;-67
2023/05/20 08:29:35;;;;;;;20.85;11.70;;;;;;;;;;5037688;28;20074;-68
2023/05/20 08:32:00;;;;;;;22.20;12.30;;;;;;;;;;5045136;28;20471;-67
2023/05/20 08:34:25;;;;;;;21.98;12.82;;;;;;;;;;5031015;28;20017;-66
2023/05/20 08:36:50;;;;;;;22.48;12.20;;;;;;;;;;5033957;28;20037;-66
2023/05/20 08:39:16;;;;;;;21.65;12.57;;;;;;;;;;5050070;28;20113;-67
2023/05/20 08:41:41;;;;;;;19.13;12.00;;;;;;;;;;5035059;28;20061;-69
2023/05/20 08:44:09;;;;;;;25.58;11.23;;;;;;;;;;5033923;28;20033;-66
2023/05/20 08:46:34;;;;;;;18.07;11.47;;;;;;;;;;5033390;28;20052;-67
2023/05/20 08:49:00;;;;;;;23.20;11.90;;;;;;;;;;5049816;28;20048;-68
2023/05/20 08:51:26;;;;;;;23.63;11.70;;;;;;;;;;5049075;28;20059;-66
2023/05/20 08:53:51;;;;;;;19.75;11.60;;;;;;;;;;5026774;28;20017;-69
2023/05/20 08:56:16;;;;;;;24.70;11.48;;;;;;;;;;5030647;28;20037;-68
2023/05/20 08:58:42;;;;;;;19.75;11.57;;;;;;;;;;5039376;28;20508;-68
2023/05/20 09:01:07;;;;;;;22.55;12.07;;;;;;;;;;5037601;28;20025;-68
2023/05/20 09:03:32;;;;;;;20.60;12.40;;;;;;;;;;5038667;28;20019;-68
2023/05/20 09:06:04;;;;;;;24.27;12.68;;;;;;;;;;5045614;28;20522;-67
2023/05/20 09:08:29;;;;;;;23.73;12.75;;;;;;;;;;5040357;28;20033;-68
2023/05/20 09:10:55;;;;;;;21.20;11.98;;;;;;;;;;5045431;28;20099;-67
2023/05/20 09:13:20;;;;;;;21.67;12.00;;;;;;;;;;5035087;28;20033;-67
2023/05/20 09:15:45;;;;;;;21.15;11.75;;;;;;;;;;5043736;28;20451;-67
2023/05/20 09:18:11;;;;;;;24.83;12.18;;;;;;;;;;5039774;28;20052;-68
2023/05/20 09:20:36;;;;;;;20.10;11.73;;;;;;;;;;5034923;28;20022;-67
2023/05/20 09:23:03;;;;;;;24.20;12.43;;;;;;;;;;5040215;28;20086;-68
2023/05/20 09:25:28;;;;;;;25.40;11.88;;;;;;;;;;5031503;28;20068;-66
2023/05/20 09:27:53;;;;;;;23.65;11.55;;;;;;;;;;5039834;28;20073;-68
2023/05/20 09:30:19;;;;;;;26.80;12.50;;;;;;;;;;5030420;28;20537;-66
2023/05/20 09:32:45;;;;;;;24.45;12.90;;;;;;;;;;5030360;28;20018;-67
2023/05/20 09:35:14;;;;;;;25.67;12.90;;;;;;;;;;5044888;28;20021;-66
2023/05/20 09:37:41;;;;;;;21.90;11.43;;;;;;;;;;5049903;28;20075;-67
2023/05/20 09:40:08;;;;;;;23.90;13.02;;;;;;;;;;5038051;28;20017;-67
2023/05/20 09:42:41;;;;;;;22.88;12.63;;;;;;;;;;5039966;28;20024;-68
2023/05/20 09:45:08;;;;;;;26.60;14.30;;;;;;;;;;5028627;28;20017;-67
2023/05/20 09:47:34;;;;;;;23.90;13.30;;;;;;;;;;5040602;28;20103;-68
2023/05/20 09:49:59;;;;;;;28.88;13.38;;;;;;;;;;5049614;28;20108;-67
2023/05/20 09:52:25;;;;;;;24.67;13.90;;;;;;;;;;5048556;28;20491;-67
2023/05/20 09:54:55;;;;;;;22.25;12.40;;;;;;;;;;5026788;28;20013;-67
2023/05/20 09:57:20;;;;;;;24.67;12.65;;;;;;;;;;5030080;28;20108;-66
2023/05/20 09:59:45;;;;;;;25.73;12.45;;;;;;;;;;5033962;28;20179;-66
2023/05/20 10:02:11;;;;;;;21.15;12.73;;;;;;;;;;5049381;28;20013;-68
2023/05/20 10:04:41;;;;;;;27.27;15.30;;;;;;;;;;5042696;28;20049;-69
2023/05/20 10:07:07;;;;;;;25.55;13.57;;;;;;;;;;5029990;28;20025;-66
2023/05/20 10:09:35;;;;;;;25.55;13.80;;;;;;;;;;5040114;28;20025;-68
2023/05/20 10:12:09;;;;;;;26.70;14.25;;;;;;;;;;5028012;28;20524;-67
2023/05/20 10:14:53;;;;;;;23.48;12.52;;;;;;;;;;5015979;28;20025;-69
2023/05/20 10:17:34;;;;;;;23.45;12.43;;;;;;;;;;5044947;28;20043;-68
2023/05/20 10:20:00;;;;;;;29.80;13.32;;;;;;;;;;5049848;28;20013;-68
2023/05/20 10:22:29;;;;;;;20.98;13.05;;;;;;;;;;5031285;28;20387;-68
2023/05/20 10:24:58;;;;;;;24.55;12.93;;;;;;;;;;5028557;28;20025;-68
2023/05/20 10:27:23;;;;;;;22.50;12.27;;;;;;;;;;5048273;28;20539;-67
2023/05/20 10:29:55;;;;;;;25.15;12.68;;;;;;;;;;5033853;28;20105;-68
2023/05/20 10:32:31;;;;;;;21.08;12.50;;;;;;;;;;5043137;28;20083;-68
2023/05/20 10:35:03;;;;;;;27.05;13.25;;;;;;;;;;5028710;28;20422;-68
2023/05/20 10:37:49;;;;;;;19.42;11.90;;;;;;;;;;5037228;28;20052;-66
2023/05/20 10:40:15;;;;;;;22.70;12.90;;;;;;;;;;5030878;28;20449;-67
2023/05/20 10:42:40;;;;;;;20.75;12.30;;;;;;;;;;5029568;28;20475;-67
2023/05/20 10:45:06;;;;;;;22.27;12.00;;;;;;;;;;5035498;28;20483;-67
2023/05/20 10:47:32;;;;;;;23.65;12.48;;;;;;;;;;5038879;28;20056;-69
2023/05/20 10:49:58;;;;;;;21.55;13.15;;;;;;;;;;5029804;28;20609;-69
2023/05/20 10:52:23;;;;;;;23.60;12.35;;;;;;;;;;5039481;28;20045;-67
2023/05/20 10:54:56;;;;;;;20.88;12.23;;;;;;;;;;5025766;28;20503;-69
2023/05/20 10:57:21;;;;;;;19.27;11.93;;;;;;;;;;5029094;28;20024;-68
2023/05/20 10:59:47;;;;;;;24.63;12.60;;;;;;;;;;5042105;28;20017;-67
2023/05/20 11:02:14;;;;;;;22.00;12.13;;;;;;;;;;5039846;28;20099;-67
2023/05/20 11:04:41;;;;;;;21.38;11.52;;;;;;;;;;5025508;28;20025;-68
2023/05/20 11:07:07;;;;;;;17.73;11.85;;;;;;;;;;5039804;28;20021;-67
2023/05/20 11:09:33;;;;;;;18.88;12.00;;;;;;;;;;5031428;28;20155;-66
2023/05/20 11:11:58;;;;;;;23.25;12.02;;;;;;;;;;5027267;28;20014;-69
2023/05/20 11:14:23;;;;;;;31.60;12.20;;;;;;;;;;5041901;28;20025;-68
2023/05/20 11:16:53;;;;;;;19.17;11.55;;;;;;;;;;5039990;28;20025;-66
2023/05/20 11:19:18;;;;;;;22.00;11.82;;;;;;;;;;5035897;28;20128;-69
2023/05/20 11:21:44;;;;;;;19.60;11.10;;;;;;;;;;5037754;28;20558;-68
2023/05/20 11:24:10;;;;;;;24.40;12.20;;;;;;;;;;5031691;28;20093;-67
2023/05/20 11:26:36;;;;;;;20.13;10.73;;;;;;;;;;5028985;28;20112;-68
2023/05/20 11:29:01;;;;;;;19.10;11.32;;;;;;;;;;5036478;28;20043;-69
2023/05/20 11:31:26;;;;;;;23.30;11.88;;;;;;;;;;5051330;28;20025;-67
2023/05/20 11:33:52;;;;;;;26.33;11.35;;;;;;;;;;5052044;28;20382;-68
2023/05/20 11:36:17;;;;;;;20.40;11.32;;;;;;;;;;5052161;28;20028;-67
2023/05/20 11:38:44;;;;;;;18.85;12.00;;;;;;;;;;5038202;28;20052;-67
2023/05/20 11:41:09;;;;;;;20.17;11.20;;;;;;;;;;5035488;28;20029;-68
2023/05/20 11:43:35;;;;;;;21.73;11.23;;;;;;;;;;5041415;28;20024;-68
2023/05/20 11:46:00;;;;;;;18.70;11.65;;;;;;;;;;5031876;28;20032;-67
2023/05/20 11:48:25;;;;;;;17.95;10.48;;;;;;;;;;5045817;28;20032;-69
2023/05/20 11:50:52;;;;;;;25.23;11.52;;;;;;;;;;5042379;28;20478;-67
2023/05/20 11:53:18;;;;;;;21.67;10.63;;;;;;;;;;5029890;28;20113;-67
2023/05/20 11:55:45;;;;;;;19.88;10.70;;;;;;;;;;5029754;28;20101;-69
2023/05/20 11:58:10;;;;;;;22.05;11.90;;;;;;;;;;5032085;28;20025;-68
2023/05/20 12:00:35;;;;;;;17.85;10.70;;;;;;;;;;5031136;28;20397;-67
2023/05/20 12:03:01;;;;;;;22.42;12.23;;;;;;;;;;5034621;28;20496;-68
2023/05/20 12:05:26;;;;;;;21.25;9.98;;;;;;;;;;5049268;28;20025;-67
2023/05/20 12:07:51;;;;;;;19.50;10.63;;;;;;;;;;5033276;28;20030;-68
2023/05/20 12:10:17;;;;;;;19.10;11.07;;;;;;;;;;5034981;28;20036;-69
2023/05/20 12:12:43;;;;;;;16.15;9.82;;;;;;;;;;5042182;28;20498;-66
2023/05/20 12:15:09;;;;;;;19.25;10.88;;;;;;;;;;5050383;28;20033;-67
2023/05/20 12:17:43;;;;;;;23.25;10.75;;;;;;;;;;5033646;28;20069;-67
2023/05/20 12:20:09;;;;;;;17.77;10.02;;;;;;;;;;5030261;28;20083;-67
2023/05/20 12:22:34;;;;;;;19.25;10.63;;;;;;;;;;5044345;28;20022;-67
2023/05/20 12:24:59;;;;;;;15.90;9.65;;;;;;;;;;5038247;28;20071;-68
2023/05/20 12:27:25;;;;;;;19.83;10.43;;;;;;;;;;5036784;28;20013;-68
2023/05/20 12:29:50;;;;;;;17.30;9.30;;;;;;;;;;5035315;28;20030;-67
2023/05/20 12:32:15;;;;;;;18.85;10.75;;;;;;;;;;5049449;28;20017;-69
2023/05/20 12:34:40;;;;;;;23.52;10.05;;;;;;;;;;5038567;28;20021;-67
2023/05/20 12:37:06;;;;;;;19.15;9.68;;;;;;;;;;5044622;28;20057;-69
2023/05/20 12:39:31;;;;;;;17.75;10.18;;;;;;;;;;5042644;28;20096;-65
2023/05/20 12:41:57;;;;;;;19.33;10.55;;;;;;;;;;5043096;28;20446;-67
2023/05/20 12:44:22;;;;;;;20.80;10.98;;;;;;;;;;5030276;28;20113;-67
2023/05/20 12:46:47;;;;;;;30.45;11.00;;;;;;;;;;5036137;28;20390;-68
2023/05/20 12:49:12;;;;;;;18.35;9.82;;;;;;;;;;5039607;28;20506;-69
2023/05/20 12:51:37;;;;;;;20.88;10.73;;;;;;;;;;5043900;28;20104;-68
2023/05/20 12:54:03;;;;;;;25.25;11.10;;;;;;;;;;5024467;28;20103;-67
2023/05/20 12:56:29;;;;;;;16.38;10.68;;;;;;;;;;5033850;28;20025;-69
2023/05/20 12:58:54;;;;;;;20.20;11.48;;;;;;;;;;5039389;28;20025;-69
2023/05/20 13:01:19;;;;;;;22.05;12.35;;;;;;;;;;5030620;28;20014;-67
2023/05/20 13:03:46;;;;;;;23.23;10.38;;;;;;;;;;5039709;28;20031;-68
2023/05/20 13:06:11;;;;;;;21.52;11.55;;;;;;;;;;5033036;28;20735;-66
2023/05/20 13:08:36;;;;;;;21.50;10.55;;;;;;;;;;5053948;22;20041;-63
2023/05/20 13:11:01;;;;;;;18.83;11.68;;;;;;;;;;5048149;28;20025;-63
2023/05/20 13:13:27;;;;;;;17.17;11.50;;;;;;;;;;5049320;28;20463;-60
2023/05/20 13:15:53;;;;;;;23.95;12.00;;;;;;;;;;5050295;28;20044;-64
2023/05/20 13:18:19;;;;;;;20.83;11.68;;;;;;;;;;5053786;28;20429;-64
2023/05/20 13:20:44;;;;;;;23.85;11.27;;;;;;;;;;5069307;28;20108;-64
2023/05/20 13:23:10;;;;;;;22.75;12.52;;;;;;;;;;5070072;28;20013;-63
2023/05/20 13:25:35;;;;;;;25.23;13.02;;;;;;;;;;5070254;28;20023;-63
2023/05/20 13:28:01;;;;;;;19.73;11.52;;;;;;;;;;5069246;28;20028;-64
2023/05/20 13:30:27;;;;;;;21.25;11.80;;;;;;;;;;5070442;28;20035;-63
2023/05/20 13:32:52;;;;;;;24.95;11.15;;;;;;;;;;5071385;28;20103;-62
2023/05/20 13:35:17;;;;;;;19.95;11.27;;;;;;;;;;5070725;28;20501;-65
2023/05/20 13:37:43;;;;;;;21.98;12.85;;;;;;;;;;5070364;28;20428;-65
2023/05/20 13:40:09;;;;;;;23.10;12.80;;;;;;;;;;5070024;28;20093;-64
2023/05/20 13:42:34;;;;;;;18.90;11.32;;;;;;;;;;5070661;28;20028;-63
2023/05/20 13:44:59;;;;;;;19.60;12.02;;;;;;;;;;5068977;28;20013;-64
2023/05/20 13:47:24;;;;;;;20.27;12.15;;;;;;;;;;5070407;28;20028;-63
2023/05/20 13:49:50;;;;;;;27.55;12.07;;;;;;;;;;5070032;28;20099;-65
2023/05/20 13:52:15;;;;;;;26.35;11.38;;;;;;;;;;5068347;28;20044;-61
2023/05/20 13:54:41;;;;;;;17.63;11.25;;;;;;;;;;5064382;28;20032;-64
2023/05/20 13:57:07;;;;;;;20.45;10.73;;;;;;;;;;5069349;28;20107;-62
2023/05/20 13:59:32;;;;;;;23.83;11.18;;;;;;;;;;5068761;28;20458;-64
2023/05/20 14:01:57;;;;;;;18.52;10.18;;;;;;;;;;5069805;28;20016;-62
2023/05/20 14:04:24;;;;;;;21.17;10.55;;;;;;;;;;5067110;28;20013;-61
2023/05/20 14:06:49;;;;;;;19.23;10.60;;;;;;;;;;5067806;28;20017;-64
2023/05/20 14:09:15;;;;;;;18.73;11.55;;;;;;;;;;5069593;28;20035;-62
2023/05/20 14:11:40;;;;;;;16.75;10.50;;;;;;;;;;5068133;28;20055;-64
2023/05/20 14:14:05;;;;;;;19.55;11.20;;;;;;;;;;5068742;28;20125;-64